sensor_id;sensor_type;location;lat;lon;timestamp;P1;durP1;ratioP1;P2;durP2;ratioP2
16775;SDS011;8505;49.456;8.164;2023-04-06T00:01:53;6.30;;;2.80;;
16775;SDS011;8505;49.456;8.164;2023-04-06T00:04:21;6.32;;;3.10;;
16775;SDS011;8505;49.456;8.164;2023-04-06T00:06:49;5.83;;;2.93;;
16775;SDS011;8505;49.456;8.164;2023-04-06T00:09:16;7.07;;;3.10;;
16775;SDS011;8505;49.456;8.164;2023-04-06T00:11:44;7.28;;;3.20;;
16775;SDS011;8505;49.456;8.164;2023-04-06T00:14:13;4.32;;;2.80;;
16775;SDS011;8505;49.456;8.164;2023-04-06T00:16:43;5.75;;;2.92;;
16775;SDS011;8505;49.456;8.164;2023-04-06T00:19:11;5.63;;;2.88;;
16775;SDS011;8505;49.456;8.164;2023-04-06T00:21:39;5.75;;;3.10;;
16775;SDS011;8505;49.456;8.164;2023-04-06T00:24:07;5.68;;;2.83;;
16775;SDS011;8505;49.456;8.164;2023-04-06T00:26:35;5.90;;;2.85;;
16775;SDS011;8505;49.456;8.164;2023-04-06T00:29:03;5.82;;;2.90;;
16775;SDS011;8505;49.456;8.164;2023-04-06T00:31:32;4.38;;;2.75;;
16775;SDS011;8505;49.456;8.164;2023-04-06T00:34:00;7.10;;;3.05;;
16775;SDS011;8505;49.456;8.164;2023-04-06T00:36:28;5.97;;;2.80;;
16775;SDS011;8505;49.456;8.164;2023-04-06T00:38:56;5.55;;;2.83;;
16775;SDS011;8505;49.456;8.164;2023-04-06T00:41:23;7.63;;;3.50;;
16775;SDS011;8505;49.456;8.164;2023-04-06T00:43:51;7.03;;;2.90;;
16775;SDS011;8505;49.456;8.164;2023-04-06T00:46:21;8.00;;;3.03;;
16775;SDS011;8505;49.456;8.164;2023-04-06T00:48:50;6.53;;;3.00;;
16775;SDS011;8505;49.456;8.164;2023-04-06T00:51:18;5.35;;;3.15;;
16775;SDS011;8505;49.456;8.164;2023-04-06T00:53:46;4.97;;;3.03;;
16775;SDS011;8505;49.456;8.164;2023-04-06T00:56:13;6.00;;;3.00;;
16775;SDS011;8505;49.456;8.164;2023-04-06T00:58:41;5.32;;;3.10;;
16775;SDS011;8505;49.456;8.164;2023-04-06T01:01:09;4.60;;;2.80;;
16775;SDS011;8505;49.456;8.164;2023-04-06T01:03:37;5.43;;;3.08;;
16775;SDS011;8505;49.456;8.164;2023-04-06T01:06:06;7.30;;;3.20;;
16775;SDS011;8505;49.456;8.164;2023-04-06T01:08:34;5.15;;;3.00;;
16775;SDS011;8505;49.456;8.164;2023-04-06T01:11:02;4.68;;;3.05;;
16775;SDS011;8505;49.456;8.164;2023-04-06T01:13:30;5.93;;;3.30;;
16775;SDS011;8505;49.456;8.164;2023-04-06T01:15:58;5.93;;;3.00;;
16775;SDS011;8505;49.456;8.164;2023-04-06T01:18:26;5.95;;;3.00;;
16775;SDS011;8505;49.456;8.164;2023-04-06T01:20:54;7.93;;;3.05;;
16775;SDS011;8505;49.456;8.164;2023-04-06T01:23:23;6.47;;;3.30;;
16775;SDS011;8505;49.456;8.164;2023-04-06T01:25:51;7.68;;;3.00;;
16775;SDS011;8505;49.456;8.164;2023-04-06T01:28:19;7.07;;;3.47;;
16775;SDS011;8505;49.456;8.164;2023-04-06T01:30:47;5.55;;;2.97;;
16775;SDS011;8505;49.456;8.164;2023-04-06T01:33:14;5.35;;;3.08;;
16775;SDS011;8505;49.456;8.164;2023-04-06T01:35:42;6.70;;;3.43;;
16775;SDS011;8505;49.456;8.164;2023-04-06T01:38:10;6.33;;;3.33;;
16775;SDS011;8505;49.456;8.164;2023-04-06T01:40:39;6.65;;;3.40;;
16775;SDS011;8505;49.456;8.164;2023-04-06T01:43:07;4.78;;;3.03;;
16775;SDS011;8505;49.456;8.164;2023-04-06T01:45:35;7.38;;;3.30;;
16775;SDS011;8505;49.456;8.164;2023-04-06T01:48:03;6.20;;;3.05;;
16775;SDS011;8505;49.456;8.164;2023-04-06T01:50:31;5.07;;;2.90;;
16775;SDS011;8505;49.456;8.164;2023-04-06T01:52:59;6.47;;;3.20;;
16775;SDS011;8505;49.456;8.164;2023-04-06T01:55:27;6.43;;;3.00;;
16775;SDS011;8505;49.456;8.164;2023-04-06T01:57:56;6.10;;;3.40;;
16775;SDS011;8505;49.456;8.164;2023-04-06T02:00:24;6.55;;;3.08;;
16775;SDS011;8505;49.456;8.164;2023-04-06T02:02:52;6.88;;;3.30;;
16775;SDS011;8505;49.456;8.164;2023-04-06T02:05:20;6.97;;;3.25;;
16775;SDS011;8505;49.456;8.164;2023-04-06T02:07:47;5.97;;;3.10;;
16775;SDS011;8505;49.456;8.164;2023-04-06T02:10:15;5.03;;;3.00;;
16775;SDS011;8505;49.456;8.164;2023-04-06T02:12:43;5.38;;;3.10;;
16775;SDS011;8505;49.456;8.164;2023-04-06T02:15:13;6.25;;;3.08;;
16775;SDS011;8505;49.456;8.164;2023-04-06T02:17:41;6.60;;;3.10;;
16775;SDS011;8505;49.456;8.164;2023-04-06T02:20:09;4.93;;;2.97;;
16775;SDS011;8505;49.456;8.164;2023-04-06T02:22:38;5.85;;;3.58;;
16775;SDS011;8505;49.456;8.164;2023-04-06T02:25:07;6.97;;;3.15;;
16775;SDS011;8505;49.456;8.164;2023-04-06T02:27:35;6.80;;;3.30;;
16775;SDS011;8505;49.456;8.164;2023-04-06T02:30:03;7.15;;;3.40;;
16775;SDS011;8505;49.456;8.164;2023-04-06T02:32:32;6.30;;;3.10;;
16775;SDS011;8505;49.456;8.164;2023-04-06T02:35:00;6.30;;;3.20;;
16775;SDS011;8505;49.456;8.164;2023-04-06T02:37:28;7.13;;;3.30;;
16775;SDS011;8505;49.456;8.164;2023-04-06T02:39:56;6.85;;;3.47;;
16775;SDS011;8505;49.456;8.164;2023-04-06T02:42:24;6.83;;;3.20;;
16775;SDS011;8505;49.456;8.164;2023-04-06T02:44:52;6.40;;;3.10;;
16775;SDS011;8505;49.456;8.164;2023-04-06T02:47:19;5.47;;;3.10;;
16775;SDS011;8505;49.456;8.164;2023-04-06T02:49:48;5.18;;;3.10;;
16775;SDS011;8505;49.456;8.164;2023-04-06T02:52:16;5.32;;;3.10;;
16775;SDS011;8505;49.456;8.164;2023-04-06T02:54:45;5.80;;;2.90;;
16775;SDS011;8505;49.456;8.164;2023-04-06T02:57:12;5.35;;;3.05;;
16775;SDS011;8505;49.456;8.164;2023-04-06T02:59:40;7.95;;;3.35;;
16775;SDS011;8505;49.456;8.164;2023-04-06T03:02:08;5.95;;;3.40;;
16775;SDS011;8505;49.456;8.164;2023-04-06T03:04:36;4.90;;;3.38;;
16775;SDS011;8505;49.456;8.164;2023-04-06T03:07:05;7.37;;;3.10;;
16775;SDS011;8505;49.456;8.164;2023-04-06T03:09:33;4.80;;;2.75;;
16775;SDS011;8505;49.456;8.164;2023-04-06T03:12:04;6.97;;;3.30;;
16775;SDS011;8505;49.456;8.164;2023-04-06T03:14:35;6.15;;;3.22;;
16775;SDS011;8505;49.456;8.164;2023-04-06T03:17:03;6.17;;;3.00;;
16775;SDS011;8505;49.456;8.164;2023-04-06T03:19:31;5.10;;;3.13;;
16775;SDS011;8505;49.456;8.164;2023-04-06T03:21:59;5.55;;;3.20;;
16775;SDS011;8505;49.456;8.164;2023-04-06T03:24:28;6.65;;;3.30;;
16775;SDS011;8505;49.456;8.164;2023-04-06T03:26:55;6.85;;;3.30;;
16775;SDS011;8505;49.456;8.164;2023-04-06T03:29:23;6.30;;;3.40;;
16775;SDS011;8505;49.456;8.164;2023-04-06T03:31:51;4.50;;;3.00;;
16775;SDS011;8505;49.456;8.164;2023-04-06T03:34:19;7.88;;;3.53;;
16775;SDS011;8505;49.456;8.164;2023-04-06T03:36:47;7.10;;;3.15;;
16775;SDS011;8505;49.456;8.164;2023-04-06T03:39:33;5.45;;;3.35;;
16775;SDS011;8505;49.456;8.164;2023-04-06T03:42:01;5.22;;;3.03;;
16775;SDS011;8505;49.456;8.164;2023-04-06T03:44:29;5.72;;;3.42;;
16775;SDS011;8505;49.456;8.164;2023-04-06T03:46:57;6.03;;;3.15;;
16775;SDS011;8505;49.456;8.164;2023-04-06T03:49:24;6.28;;;3.70;;
16775;SDS011;8505;49.456;8.164;2023-04-06T03:51:52;5.22;;;3.33;;
16775;SDS011;8505;49.456;8.164;2023-04-06T03:54:20;5.88;;;3.20;;
16775;SDS011;8505;49.456;8.164;2023-04-06T03:56:50;6.70;;;3.50;;
16775;SDS011;8505;49.456;8.164;2023-04-06T03:59:17;7.60;;;3.50;;
16775;SDS011;8505;49.456;8.164;2023-04-06T04:01:45;7.63;;;3.50;;
16775;SDS011;8505;49.456;8.164;2023-04-06T04:04:13;6.47;;;3.60;;
16775;SDS011;8505;49.456;8.164;2023-04-06T04:06:41;5.55;;;3.20;;
16775;SDS011;8505;49.456;8.164;2023-04-06T04:09:09;5.80;;;3.60;;
16775;SDS011;8505;49.456;8.164;2023-04-06T04:11:37;7.97;;;3.55;;
16775;SDS011;8505;49.456;8.164;2023-04-06T04:14:06;6.80;;;3.67;;
16775;SDS011;8505;49.456;8.164;2023-04-06T04:16:34;5.57;;;3.50;;
16775;SDS011;8505;49.456;8.164;2023-04-06T04:19:01;7.85;;;3.75;;
16775;SDS011;8505;49.456;8.164;2023-04-06T04:21:29;6.70;;;3.47;;
16775;SDS011;8505;49.456;8.164;2023-04-06T04:23:58;5.88;;;3.60;;
16775;SDS011;8505;49.456;8.164;2023-04-06T04:26:25;5.85;;;3.42;;
16775;SDS011;8505;49.456;8.164;2023-04-06T04:28:53;7.10;;;3.35;;
16775;SDS011;8505;49.456;8.164;2023-04-06T04:31:22;7.55;;;3.80;;
16775;SDS011;8505;49.456;8.164;2023-04-06T04:33:50;7.65;;;3.60;;
16775;SDS011;8505;49.456;8.164;2023-04-06T04:36:18;6.85;;;3.70;;
16775;SDS011;8505;49.456;8.164;2023-04-06T04:38:46;8.13;;;4.20;;
16775;SDS011;8505;49.456;8.164;2023-04-06T04:41:14;7.53;;;4.15;;
16775;SDS011;8505;49.456;8.164;2023-04-06T04:43:42;7.43;;;3.78;;
16775;SDS011;8505;49.456;8.164;2023-04-06T04:46:10;7.00;;;4.10;;
16775;SDS011;8505;49.456;8.164;2023-04-06T04:48:39;5.53;;;3.50;;
16775;SDS011;8505;49.456;8.164;2023-04-06T04:51:07;7.35;;;4.10;;
16775;SDS011;8505;49.456;8.164;2023-04-06T04:53:35;7.60;;;3.67;;
16775;SDS011;8505;49.456;8.164;2023-04-06T04:56:03;7.18;;;3.85;;
16775;SDS011;8505;49.456;8.164;2023-04-06T04:58:31;6.20;;;3.70;;
16775;SDS011;8505;49.456;8.164;2023-04-06T05:00:59;6.50;;;3.83;;
16775;SDS011;8505;49.456;8.164;2023-04-06T05:03:27;6.63;;;3.73;;
16775;SDS011;8505;49.456;8.164;2023-04-06T05:05:56;5.93;;;3.67;;
16775;SDS011;8505;49.456;8.164;2023-04-06T05:08:24;8.55;;;4.10;;
16775;SDS011;8505;49.456;8.164;2023-04-06T05:10:52;7.35;;;3.90;;
16775;SDS011;8505;49.456;8.164;2023-04-06T05:13:20;8.35;;;4.00;;
16775;SDS011;8505;49.456;8.164;2023-04-06T05:15:48;8.25;;;4.07;;
16775;SDS011;8505;49.456;8.164;2023-04-06T05:18:16;6.95;;;3.80;;
16775;SDS011;8505;49.456;8.164;2023-04-06T05:20:44;5.55;;;3.35;;
16775;SDS011;8505;49.456;8.164;2023-04-06T05:23:13;7.40;;;3.57;;
16775;SDS011;8505;49.456;8.164;2023-04-06T05:25:41;7.88;;;4.07;;
16775;SDS011;8505;49.456;8.164;2023-04-06T05:28:09;7.72;;;3.97;;
16775;SDS011;8505;49.456;8.164;2023-04-06T05:30:37;9.00;;;3.83;;
16775;SDS011;8505;49.456;8.164;2023-04-06T05:33:04;6.63;;;3.95;;
16775;SDS011;8505;49.456;8.164;2023-04-06T05:35:33;7.70;;;3.70;;
16775;SDS011;8505;49.456;8.164;2023-04-06T05:38:00;6.73;;;3.60;;
16775;SDS011;8505;49.456;8.164;2023-04-06T05:40:30;8.20;;;3.95;;
16775;SDS011;8505;49.456;8.164;2023-04-06T05:42:57;7.03;;;4.30;;
16775;SDS011;8505;49.456;8.164;2023-04-06T05:45:25;6.15;;;3.70;;
16775;SDS011;8505;49.456;8.164;2023-04-06T05:47:53;6.82;;;4.00;;
16775;SDS011;8505;49.456;8.164;2023-04-06T05:50:21;7.00;;;3.92;;
16775;SDS011;8505;49.456;8.164;2023-04-06T05:52:49;6.57;;;4.03;;
16775;SDS011;8505;49.456;8.164;2023-04-06T05:55:17;6.32;;;3.83;;
16775;SDS011;8505;49.456;8.164;2023-04-06T05:57:46;8.07;;;4.18;;
16775;SDS011;8505;49.456;8.164;2023-04-06T06:00:14;7.47;;;3.88;;
16775;SDS011;8505;49.456;8.164;2023-04-06T06:02:43;9.00;;;4.00;;
16775;SDS011;8505;49.456;8.164;2023-04-06T06:05:11;6.47;;;3.60;;
16775;SDS011;8505;49.456;8.164;2023-04-06T06:07:39;8.60;;;3.63;;
16775;SDS011;8505;49.456;8.164;2023-04-06T06:10:08;6.85;;;3.58;;
16775;SDS011;8505;49.456;8.164;2023-04-06T06:12:36;6.25;;;3.38;;
16775;SDS011;8505;49.456;8.164;2023-04-06T06:15:06;6.17;;;3.60;;
16775;SDS011;8505;49.456;8.164;2023-04-06T06:17:34;6.40;;;3.40;;
16775;SDS011;8505;49.456;8.164;2023-04-06T06:20:04;6.30;;;3.57;;
16775;SDS011;8505;49.456;8.164;2023-04-06T06:22:33;6.43;;;3.50;;
16775;SDS011;8505;49.456;8.164;2023-04-06T06:25:02;7.80;;;3.70;;
16775;SDS011;8505;49.456;8.164;2023-04-06T06:27:30;6.53;;;3.40;;
16775;SDS011;8505;49.456;8.164;2023-04-06T06:29:57;6.30;;;3.50;;
16775;SDS011;8505;49.456;8.164;2023-04-06T06:32:26;7.10;;;3.40;;
16775;SDS011;8505;49.456;8.164;2023-04-06T06:34:54;6.03;;;3.30;;
16775;SDS011;8505;49.456;8.164;2023-04-06T06:37:22;7.15;;;3.70;;
16775;SDS011;8505;49.456;8.164;2023-04-06T06:39:50;7.23;;;3.40;;
16775;SDS011;8505;49.456;8.164;2023-04-06T06:42:18;6.93;;;3.50;;
16775;SDS011;8505;49.456;8.164;2023-04-06T06:44:45;5.60;;;3.40;;
16775;SDS011;8505;49.456;8.164;2023-04-06T06:47:13;6.15;;;3.70;;
16775;SDS011;8505;49.456;8.164;2023-04-06T06:49:42;7.10;;;3.90;;
16775;SDS011;8505;49.456;8.164;2023-04-06T06:52:10;7.65;;;3.80;;
16775;SDS011;8505;49.456;8.164;2023-04-06T06:54:38;7.07;;;3.67;;
16775;SDS011;8505;49.456;8.164;2023-04-06T06:57:06;6.35;;;3.50;;
16775;SDS011;8505;49.456;8.164;2023-04-06T06:59:34;6.85;;;4.05;;
16775;SDS011;8505;49.456;8.164;2023-04-06T07:02:02;7.70;;;3.83;;
16775;SDS011;8505;49.456;8.164;2023-04-06T07:04:30;7.63;;;3.53;;
16775;SDS011;8505;49.456;8.164;2023-04-06T07:06:59;6.95;;;3.33;;
16775;SDS011;8505;49.456;8.164;2023-04-06T07:09:27;7.05;;;3.80;;
16775;SDS011;8505;49.456;8.164;2023-04-06T07:11:55;7.20;;;4.40;;
16775;SDS011;8505;49.456;8.164;2023-04-06T07:14:23;8.10;;;4.10;;
16775;SDS011;8505;49.456;8.164;2023-04-06T07:16:51;10.45;;;5.05;;
16775;SDS011;8505;49.456;8.164;2023-04-06T07:19:19;9.52;;;5.38;;
16775;SDS011;8505;49.456;8.164;2023-04-06T07:21:47;11.57;;;5.38;;
16775;SDS011;8505;49.456;8.164;2023-04-06T07:24:17;12.20;;;6.60;;
16775;SDS011;8505;49.456;8.164;2023-04-06T07:26:45;14.15;;;6.30;;
16775;SDS011;8505;49.456;8.164;2023-04-06T07:29:12;10.63;;;6.05;;
16775;SDS011;8505;49.456;8.164;2023-04-06T07:31:40;14.68;;;9.57;;
16775;SDS011;8505;49.456;8.164;2023-04-06T07:34:08;12.35;;;6.72;;
16775;SDS011;8505;49.456;8.164;2023-04-06T07:36:36;12.55;;;7.35;;
16775;SDS011;8505;49.456;8.164;2023-04-06T07:39:04;12.48;;;6.30;;
16775;SDS011;8505;49.456;8.164;2023-04-06T07:41:33;9.38;;;6.15;;
16775;SDS011;8505;49.456;8.164;2023-04-06T07:44:01;11.15;;;6.07;;
16775;SDS011;8505;49.456;8.164;2023-04-06T07:46:29;12.65;;;6.40;;
16775;SDS011;8505;49.456;8.164;2023-04-06T07:48:59;9.98;;;6.00;;
16775;SDS011;8505;49.456;8.164;2023-04-06T07:51:28;9.20;;;5.93;;
16775;SDS011;8505;49.456;8.164;2023-04-06T07:53:57;10.38;;;5.97;;
16775;SDS011;8505;49.456;8.164;2023-04-06T07:56:24;9.43;;;5.82;;
16775;SDS011;8505;49.456;8.164;2023-04-06T07:58:54;9.63;;;5.80;;
16775;SDS011;8505;49.456;8.164;2023-04-06T08:01:23;11.07;;;5.53;;
16775;SDS011;8505;49.456;8.164;2023-04-06T08:03:51;9.30;;;5.82;;
16775;SDS011;8505;49.456;8.164;2023-04-06T08:06:20;9.70;;;5.80;;
16775;SDS011;8505;49.456;8.164;2023-04-06T08:08:48;11.32;;;5.60;;
16775;SDS011;8505;49.456;8.164;2023-04-06T08:11:16;8.68;;;5.60;;
16775;SDS011;8505;49.456;8.164;2023-04-06T08:13:44;9.95;;;5.40;;
16775;SDS011;8505;49.456;8.164;2023-04-06T08:16:13;13.10;;;5.70;;
16775;SDS011;8505;49.456;8.164;2023-04-06T08:18:41;12.00;;;6.13;;
16775;SDS011;8505;49.456;8.164;2023-04-06T08:21:09;11.27;;;6.00;;
16775;SDS011;8505;49.456;8.164;2023-04-06T08:23:36;10.63;;;6.03;;
16775;SDS011;8505;49.456;8.164;2023-04-06T08:26:04;9.80;;;6.00;;
16775;SDS011;8505;49.456;8.164;2023-04-06T08:28:32;10.77;;;6.20;;
16775;SDS011;8505;49.456;8.164;2023-04-06T08:31:03;9.32;;;7.20;;
16775;SDS011;8505;49.456;8.164;2023-04-06T08:33:33;11.82;;;7.85;;
16775;SDS011;8505;49.456;8.164;2023-04-06T08:36:06;11.02;;;6.35;;
16775;SDS011;8505;49.456;8.164;2023-04-06T08:38:38;10.38;;;6.63;;
16775;SDS011;8505;49.456;8.164;2023-04-06T08:41:07;8.55;;;6.35;;
16775;SDS011;8505;49.456;8.164;2023-04-06T08:43:41;10.88;;;7.00;;
16775;SDS011;8505;49.456;8.164;2023-04-06T08:46:11;12.85;;;6.65;;
16775;SDS011;8505;49.456;8.164;2023-04-06T08:48:41;14.10;;;7.20;;
16775;SDS011;8505;49.456;8.164;2023-04-06T08:51:09;10.48;;;6.47;;
16775;SDS011;8505;49.456;8.164;2023-04-06T08:53:38;11.23;;;6.37;;
16775;SDS011;8505;49.456;8.164;2023-04-06T08:56:06;11.35;;;7.00;;
16775;SDS011;8505;49.456;8.164;2023-04-06T08:58:37;12.73;;;7.32;;
16775;SDS011;8505;49.456;8.164;2023-04-06T09:01:08;12.27;;;7.30;;
16775;SDS011;8505;49.456;8.164;2023-04-06T09:03:39;14.77;;;7.63;;
16775;SDS011;8505;49.456;8.164;2023-04-06T09:06:09;10.93;;;7.45;;
16775;SDS011;8505;49.456;8.164;2023-04-06T09:08:39;12.65;;;7.75;;
16775;SDS011;8505;49.456;8.164;2023-04-06T09:11:08;11.60;;;7.70;;
16775;SDS011;8505;49.456;8.164;2023-04-06T09:13:45;13.27;;;8.00;;
16775;SDS011;8505;49.456;8.164;2023-04-06T09:16:14;12.02;;;7.80;;
16775;SDS011;8505;49.456;8.164;2023-04-06T09:18:44;13.10;;;8.02;;
16775;SDS011;8505;49.456;8.164;2023-04-06T09:21:13;13.00;;;8.27;;
16775;SDS011;8505;49.456;8.164;2023-04-06T09:23:44;13.73;;;8.13;;
16775;SDS011;8505;49.456;8.164;2023-04-06T09:26:13;12.10;;;7.80;;
16775;SDS011;8505;49.456;8.164;2023-04-06T09:28:45;11.48;;;7.80;;
16775;SDS011;8505;49.456;8.164;2023-04-06T09:31:14;12.50;;;7.47;;
16775;SDS011;8505;49.456;8.164;2023-04-06T09:33:45;11.15;;;7.30;;
16775;SDS011;8505;49.456;8.164;2023-04-06T09:36:13;11.40;;;7.57;;
16775;SDS011;8505;49.456;8.164;2023-04-06T09:38:51;10.88;;;8.00;;
16775;SDS011;8505;49.456;8.164;2023-04-06T09:41:21;13.02;;;7.72;;
16775;SDS011;8505;49.456;8.164;2023-04-06T09:43:51;13.13;;;7.90;;
16775;SDS011;8505;49.456;8.164;2023-04-06T09:46:20;13.52;;;7.50;;
16775;SDS011;8505;49.456;8.164;2023-04-06T09:48:51;14.32;;;8.52;;
16775;SDS011;8505;49.456;8.164;2023-04-06T09:51:20;13.18;;;8.60;;
16775;SDS011;8505;49.456;8.164;2023-04-06T09:53:50;14.23;;;9.00;;
16775;SDS011;8505;49.456;8.164;2023-04-06T09:56:22;13.20;;;8.98;;
16775;SDS011;8505;49.456;8.164;2023-04-06T09:58:56;16.30;;;9.10;;
16775;SDS011;8505;49.456;8.164;2023-04-06T10:01:29;13.57;;;8.88;;
16775;SDS011;8505;49.456;8.164;2023-04-06T10:04:03;14.40;;;8.60;;
16775;SDS011;8505;49.456;8.164;2023-04-06T10:06:40;14.73;;;8.68;;
16775;SDS011;8505;49.456;8.164;2023-04-06T10:09:08;15.07;;;8.70;;
16775;SDS011;8505;49.456;8.164;2023-04-06T10:11:37;13.38;;;8.95;;
16775;SDS011;8505;49.456;8.164;2023-04-06T10:14:05;12.68;;;8.68;;
16775;SDS011;8505;49.456;8.164;2023-04-06T10:16:34;13.20;;;8.43;;
16775;SDS011;8505;49.456;8.164;2023-04-06T10:19:06;13.75;;;7.72;;
16775;SDS011;8505;49.456;8.164;2023-04-06T10:21:40;13.32;;;8.15;;
16775;SDS011;8505;49.456;8.164;2023-04-06T10:24:13;13.60;;;7.90;;
16775;SDS011;8505;49.456;8.164;2023-04-06T10:26:41;13.00;;;8.80;;
16775;SDS011;8505;49.456;8.164;2023-04-06T10:29:09;13.53;;;8.70;;
16775;SDS011;8505;49.456;8.164;2023-04-06T10:31:39;15.15;;;10.30;;
16775;SDS011;8505;49.456;8.164;2023-04-06T10:34:11;15.77;;;9.93;;
16775;SDS011;8505;49.456;8.164;2023-04-06T10:36:40;16.10;;;10.35;;
16775;SDS011;8505;49.456;8.164;2023-04-06T10:39:08;12.70;;;8.40;;
16775;SDS011;8505;49.456;8.164;2023-04-06T10:41:36;11.75;;;7.90;;
16775;SDS011;8505;49.456;8.164;2023-04-06T10:44:16;13.75;;;7.35;;
16775;SDS011;8505;49.456;8.164;2023-04-06T10:46:52;10.70;;;7.43;;
16775;SDS011;8505;49.456;8.164;2023-04-06T10:49:22;10.93;;;7.50;;
16775;SDS011;8505;49.456;8.164;2023-04-06T10:51:53;11.77;;;7.35;;
16775;SDS011;8505;49.456;8.164;2023-04-06T10:54:22;12.55;;;7.15;;
16775;SDS011;8505;49.456;8.164;2023-04-06T10:56:52;9.63;;;6.75;;
16775;SDS011;8505;49.456;8.164;2023-04-06T10:59:19;11.55;;;6.93;;
16775;SDS011;8505;49.456;8.164;2023-04-06T11:01:48;10.25;;;6.53;;
16775;SDS011;8505;49.456;8.164;2023-04-06T11:04:17;9.88;;;6.25;;
16775;SDS011;8505;49.456;8.164;2023-04-06T11:06:47;9.55;;;5.70;;
16775;SDS011;8505;49.456;8.164;2023-04-06T11:09:23;8.35;;;6.00;;
16775;SDS011;8505;49.456;8.164;2023-04-06T11:11:52;8.82;;;5.88;;
16775;SDS011;8505;49.456;8.164;2023-04-06T11:14:21;9.18;;;5.80;;
16775;SDS011;8505;49.456;8.164;2023-04-06T11:16:50;9.50;;;6.00;;
16775;SDS011;8505;49.456;8.164;2023-04-06T11:19:18;9.95;;;5.82;;
16775;SDS011;8505;49.456;8.164;2023-04-06T11:21:48;9.05;;;5.88;;
16775;SDS011;8505;49.456;8.164;2023-04-06T11:24:16;10.35;;;5.63;;
16775;SDS011;8505;49.456;8.164;2023-04-06T11:26:46;7.88;;;5.38;;
16775;SDS011;8505;49.456;8.164;2023-04-06T11:29:17;9.65;;;5.82;;
16775;SDS011;8505;49.456;8.164;2023-04-06T11:31:46;8.35;;;5.55;;
16775;SDS011;8505;49.456;8.164;2023-04-06T11:34:16;8.43;;;5.75;;
16775;SDS011;8505;49.456;8.164;2023-04-06T11:36:45;10.18;;;6.80;;
16775;SDS011;8505;49.456;8.164;2023-04-06T11:39:18;8.32;;;6.15;;
16775;SDS011;8505;49.456;8.164;2023-04-06T11:41:48;8.55;;;5.38;;
16775;SDS011;8505;49.456;8.164;2023-04-06T11:44:26;8.15;;;5.30;;
16775;SDS011;8505;49.456;8.164;2023-04-06T11:46:56;8.50;;;5.73;;
16775;SDS011;8505;49.456;8.164;2023-04-06T11:49:26;8.40;;;5.80;;
16775;SDS011;8505;49.456;8.164;2023-04-06T11:51:56;7.88;;;5.60;;
16775;SDS011;8505;49.456;8.164;2023-04-06T11:54:31;8.75;;;5.80;;
16775;SDS011;8505;49.456;8.164;2023-04-06T11:57:00;8.75;;;5.80;;
16775;SDS011;8505;49.456;8.164;2023-04-06T11:59:28;11.43;;;5.90;;
16775;SDS011;8505;49.456;8.164;2023-04-06T12:01:56;8.02;;;5.78;;
16775;SDS011;8505;49.456;8.164;2023-04-06T12:04:24;8.45;;;5.97;;
16775;SDS011;8505;49.456;8.164;2023-04-06T12:06:52;8.80;;;5.35;;
16775;SDS011;8505;49.456;8.164;2023-04-06T12:09:22;9.77;;;6.03;;
16775;SDS011;8505;49.456;8.164;2023-04-06T12:11:50;8.82;;;5.80;;
16775;SDS011;8505;49.456;8.164;2023-04-06T12:14:18;8.57;;;5.68;;
16775;SDS011;8505;49.456;8.164;2023-04-06T12:16:45;8.73;;;5.90;;
16775;SDS011;8505;49.456;8.164;2023-04-06T12:19:13;9.60;;;5.75;;
16775;SDS011;8505;49.456;8.164;2023-04-06T12:21:41;9.52;;;5.70;;
16775;SDS011;8505;49.456;8.164;2023-04-06T12:24:09;8.30;;;5.13;;
16775;SDS011;8505;49.456;8.164;2023-04-06T12:26:38;8.52;;;5.00;;
16775;SDS011;8505;49.456;8.164;2023-04-06T12:29:07;7.80;;;5.10;;
16775;SDS011;8505;49.456;8.164;2023-04-06T12:31:35;9.00;;;4.97;;
16775;SDS011;8505;49.456;8.164;2023-04-06T12:34:05;6.80;;;4.70;;
16775;SDS011;8505;49.456;8.164;2023-04-06T12:36:33;9.27;;;4.72;;
16775;SDS011;8505;49.456;8.164;2023-04-06T12:39:01;9.15;;;5.20;;
16775;SDS011;8505;49.456;8.164;2023-04-06T12:41:29;10.70;;;5.13;;
16775;SDS011;8505;49.456;8.164;2023-04-06T12:43:59;7.65;;;5.03;;
16775;SDS011;8505;49.456;8.164;2023-04-06T12:46:27;8.90;;;4.70;;
16775;SDS011;8505;49.456;8.164;2023-04-06T12:48:56;8.18;;;4.80;;
16775;SDS011;8505;49.456;8.164;2023-04-06T12:51:27;7.80;;;4.70;;
16775;SDS011;8505;49.456;8.164;2023-04-06T12:53:55;8.05;;;4.82;;
16775;SDS011;8505;49.456;8.164;2023-04-06T12:56:24;6.50;;;4.30;;
16775;SDS011;8505;49.456;8.164;2023-04-06T12:58:53;8.48;;;4.80;;
16775;SDS011;8505;49.456;8.164;2023-04-06T13:01:22;9.45;;;4.75;;
16775;SDS011;8505;49.456;8.164;2023-04-06T13:03:51;8.00;;;5.00;;
16775;SDS011;8505;49.456;8.164;2023-04-06T13:06:19;8.63;;;4.90;;
16775;SDS011;8505;49.456;8.164;2023-04-06T13:08:47;10.20;;;4.80;;
16775;SDS011;8505;49.456;8.164;2023-04-06T13:11:16;8.55;;;5.00;;
16775;SDS011;8505;49.456;8.164;2023-04-06T13:13:44;10.00;;;5.10;;
16775;SDS011;8505;49.456;8.164;2023-04-06T13:16:12;8.20;;;5.00;;
16775;SDS011;8505;49.456;8.164;2023-04-06T13:18:42;8.05;;;4.95;;
16775;SDS011;8505;49.456;8.164;2023-04-06T13:21:13;8.18;;;5.00;;
16775;SDS011;8505;49.456;8.164;2023-04-06T13:23:42;8.15;;;5.28;;
16775;SDS011;8505;49.456;8.164;2023-04-06T13:26:10;10.20;;;5.20;;
16775;SDS011;8505;49.456;8.164;2023-04-06T13:28:39;9.25;;;5.18;;
16775;SDS011;8505;49.456;8.164;2023-04-06T13:31:08;8.20;;;5.50;;
16775;SDS011;8505;49.456;8.164;2023-04-06T13:33:36;9.53;;;5.20;;
16775;SDS011;8505;49.456;8.164;2023-04-06T13:36:06;9.18;;;5.50;;
16775;SDS011;8505;49.456;8.164;2023-04-06T13:38:35;8.88;;;5.38;;
16775;SDS011;8505;49.456;8.164;2023-04-06T13:41:05;8.48;;;5.28;;
16775;SDS011;8505;49.456;8.164;2023-04-06T13:43:33;10.32;;;5.50;;
16775;SDS011;8505;49.456;8.164;2023-04-06T13:46:01;9.68;;;5.50;;
16775;SDS011;8505;49.456;8.164;2023-04-06T13:48:31;9.25;;;5.75;;
16775;SDS011;8505;49.456;8.164;2023-04-06T13:51:08;8.82;;;5.60;;
16775;SDS011;8505;49.456;8.164;2023-04-06T13:53:37;11.25;;;5.60;;
16775;SDS011;8505;49.456;8.164;2023-04-06T13:56:07;8.75;;;5.28;;
16775;SDS011;8505;49.456;8.164;2023-04-06T13:58:35;9.27;;;5.50;;
16775;SDS011;8505;49.456;8.164;2023-04-06T14:01:03;8.27;;;5.00;;
16775;SDS011;8505;49.456;8.164;2023-04-06T14:03:32;8.68;;;4.95;;
16775;SDS011;8505;49.456;8.164;2023-04-06T14:06:01;7.28;;;3.70;;
16775;SDS011;8505;49.456;8.164;2023-04-06T14:08:56;14.37;;;8.10;;
16775;SDS011;8505;49.456;8.164;2023-04-06T14:11:24;10.23;;;6.00;;
16775;SDS011;8505;49.456;8.164;2023-04-06T14:13:52;6.60;;;4.18;;
16775;SDS011;8505;49.456;8.164;2023-04-06T14:16:23;7.38;;;4.70;;
16775;SDS011;8505;49.456;8.164;2023-04-06T14:18:51;9.38;;;5.45;;
16775;SDS011;8505;49.456;8.164;2023-04-06T14:21:20;12.30;;;6.10;;
16775;SDS011;8505;49.456;8.164;2023-04-06T14:23:48;10.60;;;6.00;;
16775;SDS011;8505;49.456;8.164;2023-04-06T14:26:17;9.10;;;4.83;;
16775;SDS011;8505;49.456;8.164;2023-04-06T14:28:45;6.93;;;4.25;;
16775;SDS011;8505;49.456;8.164;2023-04-06T14:31:13;14.32;;;8.85;;
16775;SDS011;8505;49.456;8.164;2023-04-06T14:33:42;9.25;;;6.03;;
16775;SDS011;8505;49.456;8.164;2023-04-06T14:36:11;39.55;;;24.75;;
16775;SDS011;8505;49.456;8.164;2023-04-06T14:38:40;20.38;;;11.18;;
16775;SDS011;8505;49.456;8.164;2023-04-06T14:41:14;18.80;;;11.55;;
16775;SDS011;8505;49.456;8.164;2023-04-06T14:43:42;6.23;;;3.13;;
16775;SDS011;8505;49.456;8.164;2023-04-06T14:46:11;7.60;;;3.70;;
16775;SDS011;8505;49.456;8.164;2023-04-06T14:48:39;8.05;;;4.15;;
16775;SDS011;8505;49.456;8.164;2023-04-06T14:51:07;13.63;;;9.18;;
16775;SDS011;8505;49.456;8.164;2023-04-06T14:53:35;7.97;;;4.40;;
16775;SDS011;8505;49.456;8.164;2023-04-06T14:56:04;7.38;;;4.63;;
16775;SDS011;8505;49.456;8.164;2023-04-06T14:58:32;12.57;;;7.22;;
16775;SDS011;8505;49.456;8.164;2023-04-06T15:01:00;6.97;;;4.40;;
16775;SDS011;8505;49.456;8.164;2023-04-06T15:03:29;5.60;;;3.50;;
16775;SDS011;8505;49.456;8.164;2023-04-06T15:05:57;5.70;;;3.60;;
16775;SDS011;8505;49.456;8.164;2023-04-06T15:08:25;12.13;;;7.43;;